Terminal Aerodrome Forecast
Issued by NWS Grand Forks, ND

Home | Current Version | Previous Version | Text Only | Print | Product List | Glossary Off
Versions: 1 2 3 4 5 6 7 8 9 10 11 12 13 14 15 16 17 18 19 20 21 22 23 24

000
FTUS43 KFGF 262100 AAB
TAFGFK
TAF AMD
KGFK 262136Z 2622/2718 35014KT P6SM BKN015
     FM270000 34006KT P6SM SCT025
     FM271000 17006KT P6SM BKN150=

USA.gov is the U.S. government's official web portal to all federal, state and local government web resources and services.